Time,TemperatureF,DewpointF,PressureIn,WindDirection,WindDirectionDegrees,WindSpeedMPH,WindSpeedGustMPH,Humidity,HourlyPrecipIn,Conditions,Clouds,dailyrainin,SoftwareType,DateUTC
2013-01-12 00:00:00,37.6,37.1,30.15,ENE,68,0.0,0.0,98,0.00,,---,0.00,VWS V14.00,2013-01-12 05:00:00,
2013-01-12 00:01:00,37.6,37.1,30.15,ENE,68,0.0,0.0,98,0.00,,---,0.00,VWS V14.00,2013-01-12 05:01:00,
2013-01-12 00:06:00,37.4,36.9,30.15,ENE,68,0.0,0.0,98,0.04,,---,0.04,VWS V14.00,2013-01-12 05:06:00,
2013-01-12 00:11:00,37.6,37.1,30.15,ENE,68,0.0,0.0,98,0.00,,---,0.04,VWS V14.00,2013-01-12 05:11:00,
2013-01-12 00:16:00,37.8,37.2,30.15,ESE,112,1.6,2.5,98,0.00,,---,0.04,VWS V14.00,2013-01-12 05:16:00,
2013-01-12 00:21:00,37.6,37.1,30.15,ESE,112,0.9,1.1,98,0.00,,---,0.04,VWS V14.00,2013-01-12 05:21:00,
2013-01-12 00:26:00,37.6,37.1,30.12,East,90,1.1,1.1,98,0.00,,---,0.04,VWS V14.00,2013-01-12 05:26:00,
2013-01-12 00:31:00,37.9,37.4,30.12,East,90,1.1,1.1,98,0.00,,---,0.04,VWS V14.00,2013-01-12 05:31:00,
2013-01-12 00:36:00,37.9,37.4,30.12,ESE,112,1.6,1.6,98,0.00,,---,0.04,VWS V14.00,2013-01-12 05:36:00,
2013-01-12 00:41:00,38.1,37.6,30.12,SE,135,0.0,0.0,98,0.00,,---,0.04,VWS V14.00,2013-01-12 05:41:00,
2013-01-12 00:46:00,38.1,37.6,30.12,East,90,1.6,1.6,98,0.00,,---,0.04,VWS V14.00,2013-01-12 05:46:00,
2013-01-12 00:51:00,38.1,37.6,30.12,East,90,1.6,2.0,98,0.00,,---,0.04,VWS V14.00,2013-01-12 05:51:00,
2013-01-12 00:56:00,37.9,37.4,30.12,East,90,0.0,0.0,98,0.00,,---,0.04,VWS V14.00,2013-01-12 05:56:00,
2013-01-12 01:01:00,37.9,37.4,30.12,East,90,0.0,0.0,98,0.00,,---,0.04,VWS V14.00,2013-01-12 06:01:00,
2013-01-12 01:06:00,37.9,37.4,30.12,East,90,0.0,0.0,98,0.00,,---,0.04,VWS V14.00,2013-01-12 06:06:00,
2013-01-12 01:11:00,37.9,37.4,30.09,East,90,0.0,0.0,98,0.00,,---,0.04,VWS V14.00,2013-01-12 06:11:00,
2013-01-12 01:16:00,37.8,37.2,30.09,East,90,0.0,0.0,98,0.00,,---,0.04,VWS V14.00,2013-01-12 06:16:00,
2013-01-12 01:21:00,37.9,37.4,30.09,SE,135,0.9,1.3,98,0.00,,---,0.04,VWS V14.00,2013-01-12 06:21:00,
2013-01-12 01:26:00,38.1,37.6,30.09,East,90,0.0,0.0,98,0.00,,---,0.04,VWS V14.00,2013-01-12 06:26:00,
2013-01-12 01:31:00,38.1,37.6,30.09,ESE,112,1.6,2.5,98,0.00,,---,0.04,VWS V14.00,2013-01-12 06:31:00,
2013-01-12 01:36:00,38.1,37.6,30.09,ESE,112,0.0,0.0,98,0.00,,---,0.04,VWS V14.00,2013-01-12 06:36:00,
2013-01-12 01:41:00,38.1,37.6,30.09,ESE,112,0.0,0.0,98,0.00,,---,0.04,VWS V14.00,2013-01-12 06:41:00,
2013-01-12 01:46:00,38.1,37.6,30.09,ESE,112,0.0,1.1,98,0.00,,---,0.04,VWS V14.00,2013-01-12 06:46:00,
2013-01-12 01:51:00,38.1,37.6,30.09,ESE,112,0.0,0.0,98,0.00,,---,0.04,VWS V14.00,2013-01-12 06:51:00,
2013-01-12 01:56:00,38.5,38.0,30.12,ENE,68,1.6,1.6,98,0.00,,---,0.04,VWS V14.00,2013-01-12 06:56:00,
2013-01-12 02:01:00,38.5,38.0,30.12,ENE,68,2.7,2.7,98,0.00,,---,0.04,VWS V14.00,2013-01-12 07:01:00,
2013-01-12 02:06:00,38.5,38.0,30.12,East,90,1.6,1.6,98,0.00,,---,0.04,VWS V14.00,2013-01-12 07:06:00,
2013-01-12 02:11:00,38.5,38.0,30.09,SE,135,2.2,3.1,98,0.00,,---,0.04,VWS V14.00,2013-01-12 07:11:00,
2013-01-12 02:16:00,38.3,37.8,30.09,SE,135,0.0,0.0,98,0.00,,---,0.04,VWS V14.00,2013-01-12 07:16:00,
2013-01-12 02:21:00,38.3,37.8,30.09,SE,135,1.3,1.3,98,0.00,,---,0.04,VWS V14.00,2013-01-12 07:21:00,
2013-01-12 02:26:00,38.1,37.6,30.12,SE,135,0.0,0.0,98,0.00,,---,0.04,VWS V14.00,2013-01-12 07:26:00,
2013-01-12 02:31:00,38.1,37.6,30.12,SE,135,0.0,0.0,98,0.00,,---,0.04,VWS V14.00,2013-01-12 07:31:00,
2013-01-12 02:36:00,38.1,37.6,30.12,SE,135,0.0,0.0,98,0.00,,---,0.04,VWS V14.00,2013-01-12 07:36:00,
2013-01-12 02:41:00,38.3,37.8,30.09,East,90,2.7,2.7,98,0.00,,---,0.04,VWS V14.00,2013-01-12 07:41:00,
2013-01-12 02:46:00,38.1,37.6,30.09,SE,135,1.1,1.3,98,0.00,,---,0.04,VWS V14.00,2013-01-12 07:46:00,
2013-01-12 02:51:00,38.3,37.8,30.09,SE,135,1.6,1.6,98,0.00,,---,0.04,VWS V14.00,2013-01-12 07:51:00,
2013-01-12 02:56:00,38.3,37.8,30.09,ESE,112,1.6,1.6,98,0.00,,---,0.04,VWS V14.00,2013-01-12 07:56:00,
2013-01-12 03:01:00,38.5,38.0,30.09,East,90,0.0,0.0,98,0.00,,---,0.04,VWS V14.00,2013-01-12 08:01:00,
2013-01-12 03:06:00,38.3,37.8,30.09,East,90,0.0,0.0,98,0.00,,---,0.04,VWS V14.00,2013-01-12 08:06:00,
2013-01-12 03:11:00,38.1,37.6,30.09,East,90,0.0,0.0,98,0.00,,---,0.04,VWS V14.00,2013-01-12 08:11:00,
2013-01-12 03:16:00,38.3,37.8,30.09,East,90,0.0,0.0,98,0.00,,---,0.04,VWS V14.00,2013-01-12 08:16:00,
2013-01-12 03:21:00,38.1,37.6,30.09,East,90,0.0,0.0,98,0.00,,---,0.04,VWS V14.00,2013-01-12 08:21:00,
2013-01-12 03:26:00,38.5,38.0,30.09,East,90,0.0,0.0,98,0.00,,---,0.04,VWS V14.00,2013-01-12 08:26:00,
2013-01-12 03:31:00,38.5,38.0,30.09,East,90,0.0,0.0,98,0.00,,---,0.04,VWS V14.00,2013-01-12 08:31:00,
2013-01-12 03:36:00,38.5,38.0,30.09,ENE,68,0.0,0.0,98,0.00,,---,0.04,VWS V14.00,2013-01-12 08:36:00,
2013-01-12 03:41:00,38.7,38.2,30.12,ENE,68,0.0,0.0,98,0.00,,---,0.04,VWS V14.00,2013-01-12 08:41:00,
2013-01-12 03:46:00,38.7,38.2,30.12,ENE,68,0.0,0.0,98,0.00,,---,0.04,VWS V14.00,2013-01-12 08:46:00,
2013-01-12 03:51:00,38.7,38.2,30.12,ENE,68,0.0,0.0,98,0.00,,---,0.04,VWS V14.00,2013-01-12 08:51:00,
2013-01-12 03:56:00,38.5,38.0,30.09,ENE,68,0.0,0.0,98,0.00,,---,0.04,VWS V14.00,2013-01-12 08:56:00,
2013-01-12 04:01:00,38.3,37.8,30.09,ENE,68,0.0,0.0,98,0.00,,---,0.04,VWS V14.00,2013-01-12 09:01:00,
2013-01-12 04:06:00,38.3,37.8,30.09,ENE,68,0.0,0.0,98,0.00,,---,0.04,VWS V14.00,2013-01-12 09:06:00,
2013-01-12 04:11:00,38.3,37.8,30.09,ENE,68,0.0,0.0,98,0.00,,---,0.04,VWS V14.00,2013-01-12 09:11:00,
2013-01-12 04:16:00,38.3,37.8,30.09,ENE,68,0.0,0.0,98,0.00,,---,0.04,VWS V14.00,2013-01-12 09:16:00,
2013-01-12 04:21:00,38.3,37.8,30.09,ENE,68,0.0,0.0,98,0.00,,---,0.04,VWS V14.00,2013-01-12 09:21:00,
2013-01-12 04:26:00,38.3,37.8,30.09,ENE,68,0.0,0.0,98,0.00,,---,0.04,VWS V14.00,2013-01-12 09:26:00,
2013-01-12 04:31:00,38.5,38.0,30.09,ENE,68,0.0,0.0,98,0.00,,---,0.04,VWS V14.00,2013-01-12 09:31:00,
2013-01-12 04:36:00,38.3,37.8,30.09,ENE,68,0.0,0.0,98,0.00,,---,0.04,VWS V14.00,2013-01-12 09:36:00,
2013-01-12 04:41:00,38.5,38.0,30.09,ENE,68,0.0,0.0,98,0.00,,---,0.04,VWS V14.00,2013-01-12 09:41:00,
2013-01-12 04:46:00,38.3,37.8,30.09,ENE,68,0.0,0.0,98,0.00,,---,0.04,VWS V14.00,2013-01-12 09:46:00,
2013-01-12 04:51:00,38.3,37.8,30.09,ENE,68,0.0,0.9,98,0.00,,---,0.04,VWS V14.00,2013-01-12 09:51:00,
2013-01-12 04:56:00,38.3,37.8,30.12,ENE,68,0.0,0.0,98,0.00,,---,0.04,VWS V14.00,2013-01-12 09:56:00,
2013-01-12 05:01:00,38.1,37.6,30.12,ENE,68,0.0,0.0,98,0.00,,---,0.04,VWS V14.00,2013-01-12 10:01:00,
2013-01-12 05:06:00,37.8,37.2,30.12,ENE,68,0.0,2.0,98,0.00,,---,0.04,VWS V14.00,2013-01-12 10:06:00,
2013-01-12 05:11:00,37.8,37.2,30.09,ENE,68,0.0,0.0,98,0.00,,---,0.04,VWS V14.00,2013-01-12 10:11:00,
2013-01-12 05:16:00,37.8,37.2,30.09,NE,45,0.0,0.0,98,0.00,,---,0.04,VWS V14.00,2013-01-12 10:16:00,
2013-01-12 05:21:00,37.6,37.1,30.09,NE,45,0.0,0.0,98,0.00,,---,0.04,VWS V14.00,2013-01-12 10:21:00,
2013-01-12 05:26:00,37.6,37.1,30.09,NE,45,1.6,3.6,98,0.00,,---,0.04,VWS V14.00,2013-01-12 10:26:00,
2013-01-12 05:31:00,37.4,36.9,30.09,NE,45,0.0,0.0,98,0.00,,---,0.04,VWS V14.00,2013-01-12 10:31:00,
2013-01-12 05:36:00,37.4,36.9,30.09,NE,45,1.1,1.3,98,0.00,,---,0.04,VWS V14.00,2013-01-12 10:36:00,
2013-01-12 05:41:00,37.0,36.5,30.09,NE,45,0.0,0.0,98,0.00,,---,0.04,VWS V14.00,2013-01-12 10:41:00,
2013-01-12 05:46:00,37.0,36.5,30.09,NE,45,2.5,2.5,98,0.00,,---,0.04,VWS V14.00,2013-01-12 10:46:00,
2013-01-12 05:50:00,37.0,36.5,30.09,NE,45,0.0,0.0,98,0.00,,---,0.04,VWS V14.00,2013-01-12 10:50:00,
2013-01-12 05:55:00,37.2,36.7,30.09,SE,135,0.0,1.6,98,0.00,,---,0.04,VWS V14.00,2013-01-12 10:55:00,
2013-01-12 06:00:00,37.2,36.7,30.09,ESE,112,0.0,0.0,98,0.00,,---,0.04,VWS V14.00,2013-01-12 11:00:00,
2013-01-12 06:05:00,37.0,36.5,30.09,ESE,112,0.0,0.0,98,0.00,,---,0.04,VWS V14.00,2013-01-12 11:05:00,
2013-01-12 06:10:00,37.2,36.7,30.12,ESE,112,0.0,0.0,98,0.00,,---,0.04,VWS V14.00,2013-01-12 11:10:00,
2013-01-12 06:15:00,37.2,36.7,30.12,ESE,112,0.0,0.0,98,0.00,,---,0.04,VWS V14.00,2013-01-12 11:15:00,
2013-01-12 06:20:00,37.0,36.5,30.12,ESE,112,0.0,0.0,98,0.00,,---,0.04,VWS V14.00,2013-01-12 11:20:00,
2013-01-12 06:25:00,37.0,36.5,30.12,ESE,112,0.0,0.0,98,0.00,,---,0.04,VWS V14.00,2013-01-12 11:25:00,
2013-01-12 06:30:00,37.2,36.7,30.12,ESE,112,0.0,0.0,98,0.00,,---,0.04,VWS V14.00,2013-01-12 11:30:00,
2013-01-12 06:35:00,37.4,36.9,30.12,NNE,22,0.0,0.0,98,0.00,,---,0.04,VWS V14.00,2013-01-12 11:35:00,
2013-01-12 06:40:00,37.2,36.7,30.09,NNE,22,0.0,0.0,98,0.00,,---,0.04,VWS V14.00,2013-01-12 11:40:00,
2013-01-12 06:45:00,37.2,36.7,30.09,NNE,22,0.0,0.0,98,0.00,,---,0.04,VWS V14.00,2013-01-12 11:45:00,
2013-01-12 06:50:00,36.9,36.3,30.09,NNE,22,0.0,0.0,98,0.00,,---,0.04,VWS V14.00,2013-01-12 11:50:00,
2013-01-12 06:55:00,36.9,36.3,30.12,NNE,22,0.0,0.0,98,0.00,,---,0.04,VWS V14.00,2013-01-12 11:55:00,
2013-01-12 07:00:00,36.7,36.2,30.12,NNE,22,0.0,0.0,98,0.00,,---,0.04,VWS V14.00,2013-01-12 12:00:00,
2013-01-12 07:05:00,36.5,36.0,30.12,NNE,22,0.0,0.0,98,0.00,,---,0.04,VWS V14.00,2013-01-12 12:05:00,
2013-01-12 07:10:00,36.5,36.0,30.12,NNE,22,0.0,0.0,98,0.00,,---,0.04,VWS V14.00,2013-01-12 12:10:00,
2013-01-12 07:15:00,36.7,36.2,30.12,NNE,22,0.0,0.0,98,0.00,,---,0.04,VWS V14.00,2013-01-12 12:15:00,
2013-01-12 07:20:00,36.5,36.0,30.12,NNE,22,0.0,0.0,98,0.00,,---,0.04,VWS V14.00,2013-01-12 12:20:00,
2013-01-12 07:25:00,36.5,36.0,30.12,NNE,22,0.0,0.0,98,0.00,,---,0.04,VWS V14.00,2013-01-12 12:25:00,
2013-01-12 07:30:00,36.7,36.2,30.12,NNE,22,0.0,0.0,98,0.00,,---,0.04,VWS V14.00,2013-01-12 12:30:00,
2013-01-12 07:35:00,36.9,36.3,30.12,NNE,22,0.0,0.0,98,0.00,,---,0.04,VWS V14.00,2013-01-12 12:35:00,
2013-01-12 07:40:00,36.7,36.2,30.12,NNE,22,0.0,0.0,98,0.00,,---,0.04,VWS V14.00,2013-01-12 12:40:00,
2013-01-12 07:45:00,36.9,36.3,30.12,NNE,22,0.0,0.0,98,0.00,,---,0.04,VWS V14.00,2013-01-12 12:45:00,
2013-01-12 07:50:00,37.0,36.5,30.12,NNE,22,0.0,0.0,98,0.00,,---,0.04,VWS V14.00,2013-01-12 12:50:00,
2013-01-12 07:55:00,37.2,36.7,30.12,NNE,22,0.0,0.0,98,0.00,,---,0.04,VWS V14.00,2013-01-12 12:55:00,
2013-01-12 08:00:00,37.4,36.9,30.12,NNE,22,0.0,0.0,98,0.00,,---,0.04,VWS V14.00,2013-01-12 13:00:00,
2013-01-12 08:05:00,37.6,37.1,30.12,NNE,22,0.0,0.0,98,0.00,,---,0.04,VWS V14.00,2013-01-12 13:05:00,
2013-01-12 08:10:00,37.8,37.2,30.12,NNE,22,0.0,0.0,98,0.00,,---,0.04,VWS V14.00,2013-01-12 13:10:00,
2013-01-12 08:15:00,37.9,37.4,30.12,NNE,22,0.0,0.0,98,0.00,,---,0.04,VWS V14.00,2013-01-12 13:15:00,
2013-01-12 08:20:00,38.1,37.6,30.12,NNE,22,0.0,0.0,98,0.00,,---,0.04,VWS V14.00,2013-01-12 13:20:00,
2013-01-12 08:25:00,38.3,37.8,30.12,NNE,22,0.0,0.0,98,0.00,,---,0.04,VWS V14.00,2013-01-12 13:25:00,
2013-01-12 08:30:00,38.5,38.0,30.12,NNE,22,0.0,0.0,98,0.00,,---,0.08,VWS V14.00,2013-01-12 13:30:00,
2013-01-12 08:35:00,38.7,38.2,30.12,NNE,22,0.0,0.9,98,0.04,,---,0.08,VWS V14.00,2013-01-12 13:35:00,
2013-01-12 08:40:00,39.0,38.5,30.12,NNE,22,0.0,0.0,98,0.04,,---,0.08,VWS V14.00,2013-01-12 13:40:00,
2013-01-12 08:45:00,39.2,38.7,30.12,NNE,22,0.0,0.0,98,0.04,,---,0.08,VWS V14.00,2013-01-12 13:45:00,
2013-01-12 08:50:00,39.4,38.9,30.12,NNE,22,0.0,0.0,98,0.04,,---,0.08,VWS V14.00,2013-01-12 13:50:00,
2013-01-12 08:55:00,39.6,39.0,30.12,NNE,22,0.0,0.0,98,0.04,,---,0.08,VWS V14.00,2013-01-12 13:55:00,
2013-01-12 09:00:00,39.9,39.4,30.12,NNE,22,1.3,1.6,98,0.04,,---,0.08,VWS V14.00,2013-01-12 14:00:00,
2013-01-12 09:05:00,40.1,39.6,30.12,NNE,22,0.0,0.0,98,0.04,,---,0.08,VWS V14.00,2013-01-12 14:05:00,
2013-01-12 09:10:00,40.5,39.9,30.15,NNE,22,0.0,0.0,98,0.00,,---,0.08,VWS V14.00,2013-01-12 14:10:00,
2013-01-12 09:15:00,40.3,39.8,30.15,NNE,22,1.1,2.0,98,0.00,,---,0.08,VWS V14.00,2013-01-12 14:15:00,
2013-01-12 09:20:00,40.1,39.6,30.15,NNE,22,0.0,0.0,98,0.00,,---,0.08,VWS V14.00,2013-01-12 14:20:00,
2013-01-12 09:25:00,39.9,39.4,30.15,NNE,22,0.0,0.0,98,0.00,,---,0.08,VWS V14.00,2013-01-12 14:25:00,
2013-01-12 09:30:00,39.9,39.4,30.15,NNE,22,0.0,0.0,98,0.00,,---,0.08,VWS V14.00,2013-01-12 14:30:00,
2013-01-12 09:35:00,39.9,39.4,30.15,NNE,22,0.0,0.0,98,0.00,,---,0.08,VWS V14.00,2013-01-12 14:35:00,
2013-01-12 09:40:00,39.7,39.2,30.12,NNE,22,0.0,0.0,98,0.00,,---,0.08,VWS V14.00,2013-01-12 14:40:00,
2013-01-12 09:45:00,39.9,39.4,30.12,NNE,22,0.0,0.0,98,0.00,,---,0.08,VWS V14.00,2013-01-12 14:45:00,
2013-01-12 09:50:00,40.3,39.8,30.12,NNE,22,0.0,0.0,98,0.00,,---,0.08,VWS V14.00,2013-01-12 14:50:00,
2013-01-12 09:55:00,40.1,39.6,30.15,NNE,22,0.0,0.0,98,0.00,,---,0.08,VWS V14.00,2013-01-12 14:55:00,
2013-01-12 10:00:00,39.9,39.4,30.15,NE,45,2.7,2.7,98,0.00,,---,0.08,VWS V14.00,2013-01-12 15:00:00,
2013-01-12 10:05:00,39.7,39.2,30.15,NE,45,0.0,0.0,98,0.00,,---,0.08,VWS V14.00,2013-01-12 15:05:00,
2013-01-12 10:10:00,40.5,39.9,30.12,NE,45,2.0,2.0,98,0.00,,---,0.08,VWS V14.00,2013-01-12 15:10:00,
2013-01-12 10:15:00,40.6,40.1,30.12,ENE,68,0.0,0.0,98,0.00,,---,0.08,VWS V14.00,2013-01-12 15:15:00,
2013-01-12 10:20:00,40.8,40.3,30.12,ENE,68,0.0,0.0,98,0.00,,---,0.08,VWS V14.00,2013-01-12 15:20:00,
2013-01-12 10:25:00,41.0,40.5,30.12,ENE,68,0.0,0.0,98,0.00,,---,0.08,VWS V14.00,2013-01-12 15:25:00,
2013-01-12 10:30:00,41.0,40.5,30.12,ENE,68,0.0,0.0,98,0.00,,---,0.08,VWS V14.00,2013-01-12 15:30:00,
2013-01-12 10:35:00,41.5,41.0,30.12,ENE,68,0.0,0.0,98,0.00,,---,0.08,VWS V14.00,2013-01-12 15:35:00,
2013-01-12 10:40:00,42.1,41.6,30.12,ENE,68,0.0,0.0,98,0.00,,---,0.08,VWS V14.00,2013-01-12 15:40:00,
2013-01-12 10:45:00,42.3,41.7,30.12,ENE,68,0.0,0.0,98,0.00,,---,0.08,VWS V14.00,2013-01-12 15:45:00,
2013-01-12 10:50:00,42.4,41.9,30.12,ENE,68,0.0,0.0,98,0.00,,---,0.08,VWS V14.00,2013-01-12 15:50:00,
2013-01-12 10:55:00,42.8,42.3,30.12,ENE,68,2.5,2.5,98,0.00,,---,0.08,VWS V14.00,2013-01-12 15:55:00,
2013-01-12 11:00:00,43.0,42.5,30.12,ENE,68,0.0,0.0,98,0.00,,---,0.08,VWS V14.00,2013-01-12 16:00:00,
2013-01-12 11:05:00,43.3,42.8,30.12,ENE,68,0.0,0.0,98,0.00,,---,0.08,VWS V14.00,2013-01-12 16:05:00,
2013-01-12 11:10:00,43.5,43.0,30.12,ENE,68,0.0,0.0,98,0.00,,---,0.08,VWS V14.00,2013-01-12 16:10:00,
2013-01-12 11:15:00,43.5,43.0,30.12,ENE,68,0.0,0.0,98,0.00,,---,0.08,VWS V14.00,2013-01-12 16:15:00,
2013-01-12 11:20:00,43.9,43.3,30.12,ENE,68,0.0,0.0,98,0.00,,---,0.08,VWS V14.00,2013-01-12 16:20:00,
2013-01-12 11:25:00,44.2,43.7,30.09,ENE,68,0.0,0.0,98,0.00,,---,0.08,VWS V14.00,2013-01-12 16:25:00,
2013-01-12 11:30:00,44.6,44.1,30.09,ENE,68,0.0,0.0,98,0.00,,---,0.08,VWS V14.00,2013-01-12 16:30:00,
2013-01-12 11:35:00,45.0,44.4,30.09,ENE,68,0.0,0.0,98,0.00,,---,0.08,VWS V14.00,2013-01-12 16:35:00,
2013-01-12 11:40:00,45.1,44.6,30.09,ENE,68,0.0,0.0,98,0.00,,---,0.08,VWS V14.00,2013-01-12 16:40:00,
2013-01-12 11:45:00,45.0,44.4,30.09,ENE,68,0.0,0.0,98,0.00,,---,0.08,VWS V14.00,2013-01-12 16:45:00,
2013-01-12 11:50:00,45.1,44.3,30.09,ENE,68,0.0,0.0,97,0.00,,---,0.08,VWS V14.00,2013-01-12 16:50:00,
2013-01-12 11:55:00,45.5,44.7,30.09,ESE,112,0.0,2.5,97,0.00,,---,0.08,VWS V14.00,2013-01-12 16:55:00,
2013-01-12 12:00:00,45.7,45.2,30.09,ESE,112,0.0,1.6,98,0.00,,---,0.08,VWS V14.00,2013-01-12 17:00:00,
2013-01-12 12:05:00,45.3,44.5,30.09,ESE,112,0.0,0.0,97,0.00,,---,0.08,VWS V14.00,2013-01-12 17:05:00,
2013-01-12 12:10:00,45.5,44.7,30.09,ESE,112,0.0,0.0,97,0.00,,---,0.08,VWS V14.00,2013-01-12 17:10:00,
2013-01-12 12:15:00,45.5,44.7,30.09,ESE,112,0.0,0.0,97,0.00,,---,0.08,VWS V14.00,2013-01-12 17:15:00,
2013-01-12 12:20:00,45.7,44.9,30.09,SSE,158,0.0,0.0,97,0.00,,---,0.08,VWS V14.00,2013-01-12 17:20:00,
2013-01-12 12:25:00,45.7,44.9,30.09,South,180,0.9,1.1,97,0.00,,---,0.08,VWS V14.00,2013-01-12 17:25:00,
2013-01-12 12:30:00,45.3,44.5,30.09,SE,135,0.0,0.0,97,0.00,,---,0.08,VWS V14.00,2013-01-12 17:30:00,
2013-01-12 12:35:00,45.5,44.7,30.09,SE,135,0.0,0.0,97,0.00,,---,0.08,VWS V14.00,2013-01-12 17:35:00,
2013-01-12 12:40:00,45.1,44.1,30.09,SE,135,0.0,0.0,96,0.00,,---,0.08,VWS V14.00,2013-01-12 17:40:00,
2013-01-12 12:45:00,45.3,44.2,30.09,SE,135,0.0,0.0,96,0.00,,---,0.08,VWS V14.00,2013-01-12 17:45:00,
2013-01-12 12:50:00,45.3,44.2,30.09,SE,135,0.0,0.0,96,0.00,,---,0.08,VWS V14.00,2013-01-12 17:50:00,
2013-01-12 12:55:00,45.3,44.2,30.09,SSW,202,0.0,1.6,96,0.00,,---,0.08,VWS V14.00,2013-01-12 17:55:00,
2013-01-12 13:00:00,45.1,44.1,30.09,SSW,202,0.0,0.0,96,0.00,,---,0.08,VWS V14.00,2013-01-12 18:00:00,
2013-01-12 13:05:00,45.0,43.9,30.09,SSW,202,0.0,0.0,96,0.00,,---,0.08,VWS V14.00,2013-01-12 18:05:00,
2013-01-12 13:10:00,45.0,43.9,30.09,SSE,158,0.0,0.0,96,0.00,,---,0.08,VWS V14.00,2013-01-12 18:10:00,
2013-01-12 13:15:00,44.8,43.7,30.09,SW,225,2.2,2.2,96,0.00,,---,0.08,VWS V14.00,2013-01-12 18:15:00,
2013-01-12 13:20:00,44.8,43.7,30.09,South,180,0.0,0.0,96,0.00,,---,0.08,VWS V14.00,2013-01-12 18:20:00,
2013-01-12 13:25:00,44.6,43.5,30.09,SE,135,0.0,0.0,96,0.00,,---,0.08,VWS V14.00,2013-01-12 18:25:00,
2013-01-12 13:30:00,44.8,43.7,30.09,SE,135,0.0,0.0,96,0.00,,---,0.08,VWS V14.00,2013-01-12 18:30:00,
2013-01-12 13:35:00,45.1,44.1,30.09,SE,135,0.0,0.0,96,0.00,,---,0.08,VWS V14.00,2013-01-12 18:35:00,
2013-01-12 13:40:00,45.3,44.2,30.09,SE,135,0.0,0.0,96,0.00,,---,0.08,VWS V14.00,2013-01-12 18:40:00,
2013-01-12 13:45:00,45.5,44.4,30.09,SE,135,0.0,0.0,96,0.00,,---,0.08,VWS V14.00,2013-01-12 18:45:00,
2013-01-12 13:50:00,46.0,45.0,30.09,SE,135,0.0,0.0,96,0.00,,---,0.08,VWS V14.00,2013-01-12 18:50:00,
2013-01-12 13:55:00,46.0,45.0,30.09,SE,135,0.0,0.0,96,0.00,,---,0.08,VWS V14.00,2013-01-12 18:55:00,
2013-01-12 14:00:00,45.7,44.3,30.09,SE,135,0.0,0.0,95,0.00,,---,0.08,VWS V14.00,2013-01-12 19:00:00,
2013-01-12 14:05:00,45.5,44.2,30.09,ESE,112,0.0,0.0,95,0.00,,---,0.08,VWS V14.00,2013-01-12 19:05:00,
2013-01-12 14:10:00,46.0,45.0,30.09,ESE,112,0.0,0.0,96,0.00,,---,0.08,VWS V14.00,2013-01-12 19:10:00,
2013-01-12 14:15:00,45.9,44.5,30.09,ESE,112,0.0,0.0,95,0.00,,---,0.08,VWS V14.00,2013-01-12 19:15:00,
2013-01-12 14:20:00,45.5,44.2,30.09,ESE,112,0.0,0.0,95,0.00,,---,0.08,VWS V14.00,2013-01-12 19:20:00,
2013-01-12 14:25:00,45.3,44.0,30.12,ESE,112,0.0,0.0,95,0.00,,---,0.08,VWS V14.00,2013-01-12 19:25:00,
2013-01-12 14:30:00,44.8,43.2,30.12,ESE,112,0.0,0.0,94,0.00,,---,0.08,VWS V14.00,2013-01-12 19:30:00,
2013-01-12 14:35:00,44.4,43.1,30.12,ESE,112,0.0,0.0,95,0.00,,---,0.08,VWS V14.00,2013-01-12 19:35:00,
2013-01-12 14:40:00,44.4,43.1,30.09,ESE,112,0.0,0.0,95,0.00,,---,0.08,VWS V14.00,2013-01-12 19:40:00,
2013-01-12 14:45:00,44.4,43.1,30.09,ESE,112,0.0,0.0,95,0.00,,---,0.08,VWS V14.00,2013-01-12 19:45:00,
2013-01-12 14:50:00,44.4,43.1,30.09,ESE,112,0.9,1.3,95,0.00,,---,0.08,VWS V14.00,2013-01-12 19:50:00,
2013-01-12 14:55:00,44.4,43.1,30.09,ESE,112,0.0,0.0,95,0.00,,---,0.08,VWS V14.00,2013-01-12 19:55:00,
2013-01-12 15:00:00,44.4,43.1,30.09,ESE,112,0.0,0.0,95,0.00,,---,0.08,VWS V14.00,2013-01-12 20:00:00,
2013-01-12 15:05:00,44.1,42.7,30.09,ESE,112,0.0,0.0,95,0.00,,---,0.08,VWS V14.00,2013-01-12 20:05:00,
2013-01-12 15:10:00,44.1,42.7,30.09,SSW,202,2.9,2.9,95,0.00,,---,0.08,VWS V14.00,2013-01-12 20:10:00,
2013-01-12 15:15:00,43.9,42.5,30.09,South,180,0.0,0.0,95,0.00,,---,0.08,VWS V14.00,2013-01-12 20:15:00,
2013-01-12 15:20:00,43.9,42.5,30.09,South,180,0.0,0.0,95,0.00,,---,0.08,VWS V14.00,2013-01-12 20:20:00,
2013-01-12 15:25:00,43.7,42.4,30.09,SE,135,0.0,0.0,95,0.00,,---,0.08,VWS V14.00,2013-01-12 20:25:00,
2013-01-12 15:30:00,43.7,42.4,30.09,SE,135,0.0,0.0,95,0.00,,---,0.08,VWS V14.00,2013-01-12 20:30:00,
2013-01-12 15:35:00,43.2,41.8,30.09,SE,135,0.0,0.0,95,0.00,,---,0.08,VWS V14.00,2013-01-12 20:35:00,
2013-01-12 15:40:00,43.2,41.8,30.09,SE,135,0.0,0.0,95,0.00,,---,0.08,VWS V14.00,2013-01-12 20:40:00,
2013-01-12 15:45:00,43.0,41.9,30.09,SE,135,0.0,0.0,96,0.00,,---,0.08,VWS V14.00,2013-01-12 20:45:00,
2013-01-12 15:50:00,42.8,41.7,30.09,SE,135,0.0,0.0,96,0.00,,---,0.08,VWS V14.00,2013-01-12 20:50:00,
2013-01-12 15:55:00,42.4,41.4,30.09,SE,135,0.0,0.0,96,0.00,,---,0.08,VWS V14.00,2013-01-12 20:55:00,
2013-01-12 16:00:00,42.4,41.4,30.09,SE,135,0.0,0.0,96,0.00,,---,0.08,VWS V14.00,2013-01-12 21:00:00,
2013-01-12 16:05:00,42.4,41.4,30.09,SE,135,0.0,0.0,96,0.00,,---,0.08,VWS V14.00,2013-01-12 21:05:00,
2013-01-12 16:10:00,42.3,41.2,30.09,SE,135,0.0,0.0,96,0.00,,---,0.08,VWS V14.00,2013-01-12 21:10:00,
2013-01-12 16:15:00,42.1,41.0,30.09,SE,135,0.0,0.0,96,0.00,,---,0.08,VWS V14.00,2013-01-12 21:15:00,
2013-01-12 16:20:00,41.7,40.7,30.09,SE,135,0.0,0.0,96,0.00,,---,0.08,VWS V14.00,2013-01-12 21:20:00,
2013-01-12 16:25:00,41.5,40.5,30.09,SE,135,0.0,0.0,96,0.00,,---,0.08,VWS V14.00,2013-01-12 21:25:00,
2013-01-12 16:30:00,41.4,40.3,30.09,SE,135,0.0,0.0,96,0.00,,---,0.08,VWS V14.00,2013-01-12 21:30:00,
2013-01-12 16:35:00,41.2,40.1,30.09,SE,135,0.0,0.0,96,0.00,,---,0.08,VWS V14.00,2013-01-12 21:35:00,
2013-01-12 16:40:00,40.8,40.0,30.09,SE,135,0.0,0.0,97,0.00,,---,0.08,VWS V14.00,2013-01-12 21:40:00,
2013-01-12 16:45:00,40.8,40.0,30.09,SE,135,0.0,0.0,97,0.00,,---,0.08,VWS V14.00,2013-01-12 21:45:00,
2013-01-12 16:50:00,40.6,39.9,30.09,SE,135,0.0,0.0,97,0.00,,---,0.08,VWS V14.00,2013-01-12 21:50:00,
2013-01-12 16:55:00,40.5,39.7,30.09,SE,135,0.0,0.0,97,0.00,,---,0.08,VWS V14.00,2013-01-12 21:55:00,
2013-01-12 17:00:00,40.6,39.9,30.09,SE,135,0.0,0.0,97,0.00,,---,0.08,VWS V14.00,2013-01-12 22:00:00,
2013-01-12 17:05:00,40.6,39.9,30.09,SE,135,0.0,0.0,97,0.00,,---,0.08,VWS V14.00,2013-01-12 22:05:00,
2013-01-12 17:10:00,40.5,39.7,30.09,SE,135,0.0,0.0,97,0.00,,---,0.08,VWS V14.00,2013-01-12 22:10:00,
2013-01-12 17:15:00,40.5,39.7,30.09,SE,135,0.0,0.0,97,0.00,,---,0.08,VWS V14.00,2013-01-12 22:15:00,
2013-01-12 17:20:00,40.5,39.7,30.09,SE,135,0.0,0.0,97,0.00,,---,0.08,VWS V14.00,2013-01-12 22:20:00,
2013-01-12 17:25:00,40.5,39.7,30.09,SE,135,0.0,1.1,97,0.00,,---,0.08,VWS V14.00,2013-01-12 22:25:00,
2013-01-12 17:30:00,40.5,39.7,30.09,SE,135,0.0,0.0,97,0.00,,---,0.08,VWS V14.00,2013-01-12 22:30:00,
2013-01-12 17:35:00,40.5,39.7,30.09,SE,135,0.0,0.0,97,0.00,,---,0.08,VWS V14.00,2013-01-12 22:35:00,
2013-01-12 17:40:00,40.3,39.5,30.12,SE,135,0.0,0.0,97,0.00,,---,0.08,VWS V14.00,2013-01-12 22:40:00,
2013-01-12 17:45:00,40.3,39.5,30.12,SE,135,0.0,0.0,97,0.00,,---,0.08,VWS V14.00,2013-01-12 22:45:00,
2013-01-12 17:50:00,40.1,39.3,30.12,SE,135,0.0,0.0,97,0.00,,---,0.08,VWS V14.00,2013-01-12 22:50:00,
2013-01-12 17:55:00,40.1,39.3,30.12,SE,135,0.0,0.0,97,0.00,,---,0.08,VWS V14.00,2013-01-12 22:55:00,
2013-01-12 18:00:00,39.9,39.1,30.12,SE,135,0.0,0.0,97,0.00,,---,0.08,VWS V14.00,2013-01-12 23:00:00,
2013-01-12 18:05:00,40.1,39.3,30.12,SE,135,0.0,0.0,97,0.00,,---,0.08,VWS V14.00,2013-01-12 23:05:00,
2013-01-12 18:10:00,39.7,39.0,30.09,SE,135,0.0,0.0,97,0.00,,---,0.08,VWS V14.00,2013-01-12 23:10:00,
2013-01-12 18:15:00,39.6,38.8,30.09,SE,135,0.0,0.0,97,0.00,,---,0.08,VWS V14.00,2013-01-12 23:15:00,
2013-01-12 18:20:00,39.6,38.8,30.09,SE,135,0.0,0.0,97,0.00,,---,0.08,VWS V14.00,2013-01-12 23:20:00,
2013-01-12 18:25:00,39.2,38.4,30.09,SE,135,0.0,0.0,97,0.00,,---,0.08,VWS V14.00,2013-01-12 23:25:00,
2013-01-12 18:30:00,39.0,38.2,30.09,SE,135,0.0,0.0,97,0.00,,---,0.08,VWS V14.00,2013-01-12 23:30:00,
2013-01-12 18:35:00,38.8,38.1,30.09,SE,135,0.0,0.0,97,0.00,,---,0.08,VWS V14.00,2013-01-12 23:35:00,
2013-01-12 18:40:00,38.8,38.1,30.09,SE,135,0.0,0.0,97,0.00,,---,0.08,VWS V14.00,2013-01-12 23:40:00,
2013-01-12 18:45:00,38.8,38.1,30.09,SE,135,0.0,0.0,97,0.00,,---,0.08,VWS V14.00,2013-01-12 23:45:00,
2013-01-12 18:50:00,38.8,38.3,30.09,SE,135,0.0,0.0,98,0.00,,---,0.08,VWS V14.00,2013-01-12 23:50:00,
2013-01-12 18:55:00,38.7,37.9,30.09,SE,135,0.0,0.0,97,0.00,,---,0.08,VWS V14.00,2013-01-12 23:55:00,
2013-01-12 19:00:00,38.7,37.9,30.09,SE,135,0.0,0.0,97,0.00,,---,0.08,VWS V14.00,2013-01-13 00:00:00,
2013-01-12 19:05:00,38.7,37.9,30.09,SE,135,0.0,0.0,97,0.00,,---,0.08,VWS V14.00,2013-01-13 00:05:00,
2013-01-12 19:10:00,38.7,37.9,30.09,SE,135,0.0,0.0,97,0.00,,---,0.08,VWS V14.00,2013-01-13 00:10:00,
2013-01-12 19:15:00,38.7,38.2,30.09,SE,135,0.0,0.0,98,0.00,,---,0.08,VWS V14.00,2013-01-13 00:15:00,
2013-01-12 19:20:00,38.8,38.3,30.09,SE,135,0.0,0.0,98,0.00,,---,0.08,VWS V14.00,2013-01-13 00:20:00,
2013-01-12 19:25:00,38.8,38.3,30.09,SE,135,0.0,0.0,98,0.00,,---,0.08,VWS V14.00,2013-01-13 00:25:00,
2013-01-12 19:30:00,39.2,38.4,30.09,SE,135,0.0,0.0,97,0.00,,---,0.08,VWS V14.00,2013-01-13 00:30:00,
2013-01-12 19:35:00,39.2,38.4,30.09,SE,135,0.0,0.0,97,0.00,,---,0.08,VWS V14.00,2013-01-13 00:35:00,
2013-01-12 19:40:00,38.7,37.9,30.09,SE,135,0.0,0.0,97,0.00,,---,0.08,VWS V14.00,2013-01-13 00:40:00,
2013-01-12 19:45:00,38.7,37.9,30.09,SE,135,0.0,0.0,97,0.00,,---,0.08,VWS V14.00,2013-01-13 00:45:00,
2013-01-12 19:50:00,38.7,37.9,30.09,SE,135,0.0,0.0,97,0.00,,---,0.08,VWS V14.00,2013-01-13 00:50:00,
2013-01-12 19:55:00,38.8,38.3,30.09,SE,135,0.0,0.0,98,0.00,,---,0.08,VWS V14.00,2013-01-13 00:55:00,
2013-01-12 20:00:00,38.7,38.2,30.09,SE,135,0.0,0.0,98,0.00,,---,0.08,VWS V14.00,2013-01-13 01:00:00,
2013-01-12 20:05:00,38.5,38.0,30.09,SE,135,0.0,0.0,98,0.00,,---,0.08,VWS V14.00,2013-01-13 01:05:00,
2013-01-12 20:10:00,38.7,38.2,30.09,SE,135,0.0,0.0,98,0.00,,---,0.08,VWS V14.00,2013-01-13 01:10:00,
2013-01-12 20:15:00,38.7,38.2,30.09,SE,135,0.0,0.0,98,0.00,,---,0.08,VWS V14.00,2013-01-13 01:15:00,
2013-01-12 20:20:00,38.8,38.3,30.09,SE,135,0.0,0.0,98,0.00,,---,0.08,VWS V14.00,2013-01-13 01:20:00,
2013-01-12 20:25:00,38.8,38.3,30.09,SE,135,0.0,0.0,98,0.00,,---,0.08,VWS V14.00,2013-01-13 01:25:00,
2013-01-12 20:30:00,38.7,38.2,30.09,SE,135,0.0,0.0,98,0.00,,---,0.08,VWS V14.00,2013-01-13 01:30:00,
2013-01-12 20:35:00,38.7,38.2,30.09,SE,135,0.0,0.0,98,0.00,,---,0.08,VWS V14.00,2013-01-13 01:35:00,
2013-01-12 20:40:00,38.5,38.0,30.09,SE,135,0.0,0.0,98,0.00,,---,0.08,VWS V14.00,2013-01-13 01:40:00,
2013-01-12 20:45:00,38.3,37.5,30.09,SE,135,0.0,0.0,97,0.00,,---,0.08,VWS V14.00,2013-01-13 01:45:00,
2013-01-12 20:50:00,38.3,37.5,30.09,SE,135,0.0,0.0,97,0.00,,---,0.08,VWS V14.00,2013-01-13 01:50:00,
2013-01-12 20:55:00,38.1,37.3,30.09,SE,135,0.0,0.0,97,0.00,,---,0.08,VWS V14.00,2013-01-13 01:55:00,
2013-01-12 21:00:00,38.1,37.6,30.09,SE,135,0.0,0.0,98,0.00,,---,0.08,VWS V14.00,2013-01-13 02:00:00,
2013-01-12 21:05:00,38.1,37.6,30.09,SE,135,0.0,0.0,98,0.00,,---,0.08,VWS V14.00,2013-01-13 02:05:00,
2013-01-12 21:10:00,38.1,37.6,30.09,SE,135,0.0,0.0,98,0.00,,---,0.08,VWS V14.00,2013-01-13 02:10:00,
2013-01-12 21:15:00,38.1,37.6,30.09,SE,135,0.0,0.0,98,0.00,,---,0.08,VWS V14.00,2013-01-13 02:15:00,
2013-01-12 21:20:00,38.1,37.6,30.09,SE,135,0.0,0.0,98,0.00,,---,0.08,VWS V14.00,2013-01-13 02:20:00,
2013-01-12 21:25:00,38.5,38.0,30.09,SE,135,0.0,0.0,98,0.00,,---,0.08,VWS V14.00,2013-01-13 02:25:00,
2013-01-12 21:30:00,38.5,38.0,30.09,SE,135,0.0,0.0,98,0.00,,---,0.08,VWS V14.00,2013-01-13 02:30:00,
2013-01-12 21:35:00,38.7,38.2,30.09,SE,135,0.0,0.0,98,0.00,,---,0.08,VWS V14.00,2013-01-13 02:35:00,
2013-01-12 21:40:00,38.7,38.2,30.09,SE,135,0.0,0.0,98,0.00,,---,0.08,VWS V14.00,2013-01-13 02:40:00,
2013-01-12 21:45:00,38.3,37.8,30.09,SE,135,0.0,0.0,98,0.00,,---,0.08,VWS V14.00,2013-01-13 02:45:00,
2013-01-12 21:50:00,38.3,37.8,30.09,SE,135,0.0,0.0,98,0.00,,---,0.08,VWS V14.00,2013-01-13 02:50:00,
2013-01-12 21:55:00,38.3,37.8,30.09,SE,135,0.0,0.0,98,0.00,,---,0.08,VWS V14.00,2013-01-13 02:55:00,
2013-01-12 22:00:00,38.1,37.6,30.09,SE,135,0.0,0.0,98,0.00,,---,0.08,VWS V14.00,2013-01-13 03:00:00,
2013-01-12 22:05:00,37.9,37.4,30.09,SE,135,0.0,0.0,98,0.00,,---,0.08,VWS V14.00,2013-01-13 03:05:00,
2013-01-12 22:10:00,37.9,37.4,30.09,SE,135,0.0,0.0,98,0.00,,---,0.08,VWS V14.00,2013-01-13 03:10:00,
2013-01-12 22:15:00,37.9,37.4,30.09,SE,135,0.0,0.0,98,0.00,,---,0.08,VWS V14.00,2013-01-13 03:15:00,
2013-01-12 22:20:00,37.9,37.4,30.09,SE,135,0.0,0.0,98,0.00,,---,0.08,VWS V14.00,2013-01-13 03:20:00,
2013-01-12 22:25:00,37.9,37.4,30.09,SE,135,0.0,0.0,98,0.00,,---,0.08,VWS V14.00,2013-01-13 03:25:00,
2013-01-12 22:30:00,37.9,37.4,30.09,SE,135,0.0,0.0,98,0.00,,---,0.08,VWS V14.00,2013-01-13 03:30:00,
2013-01-12 22:35:00,37.9,37.4,30.09,SE,135,0.0,0.0,98,0.00,,---,0.08,VWS V14.00,2013-01-13 03:35:00,
2013-01-12 22:40:00,37.9,37.4,30.09,SE,135,0.0,0.0,98,0.00,,---,0.08,VWS V14.00,2013-01-13 03:40:00,
2013-01-12 22:45:00,37.9,37.4,30.09,SE,135,0.0,0.0,98,0.00,,---,0.08,VWS V14.00,2013-01-13 03:45:00,
2013-01-12 22:50:00,38.1,37.6,30.09,SE,135,0.0,0.0,98,0.00,,---,0.08,VWS V14.00,2013-01-13 03:50:00,
2013-01-12 22:55:00,38.1,37.6,30.09,SE,135,0.0,0.0,98,0.00,,---,0.08,VWS V14.00,2013-01-13 03:55:00,
2013-01-12 23:00:00,38.3,37.8,30.09,SE,135,0.0,0.0,98,0.00,,---,0.08,VWS V14.00,2013-01-13 04:00:00,
2013-01-12 23:05:00,38.7,38.2,30.09,SE,135,0.0,0.0,98,0.00,,---,0.08,VWS V14.00,2013-01-13 04:05:00,
2013-01-12 23:10:00,38.5,38.0,30.09,SE,135,0.0,0.0,98,0.00,,---,0.08,VWS V14.00,2013-01-13 04:10:00,
2013-01-12 23:15:00,38.7,38.2,30.09,SE,135,0.0,0.0,98,0.00,,---,0.08,VWS V14.00,2013-01-13 04:15:00,
2013-01-12 23:20:00,38.7,38.2,30.09,SE,135,0.0,0.0,98,0.00,,---,0.08,VWS V14.00,2013-01-13 04:20:00,
2013-01-12 23:25:00,38.7,38.2,30.09,SE,135,0.0,0.0,98,0.00,,---,0.08,VWS V14.00,2013-01-13 04:25:00,
2013-01-12 23:30:00,38.5,38.0,30.09,SE,135,0.0,0.0,98,0.00,,---,0.08,VWS V14.00,2013-01-13 04:30:00,
2013-01-12 23:35:00,38.8,38.3,30.09,SSW,202,0.0,0.0,98,0.00,,---,0.08,VWS V14.00,2013-01-13 04:35:00,
2013-01-12 23:40:00,39.0,38.5,30.09,East,90,0.0,0.0,98,0.00,,---,0.08,VWS V14.00,2013-01-13 04:40:00,
2013-01-12 23:45:00,39.0,38.5,30.09,East,90,0.0,0.0,98,0.00,,---,0.08,VWS V14.00,2013-01-13 04:45:00,
2013-01-12 23:50:00,39.0,38.5,30.09,East,90,0.0,0.0,98,0.00,,---,0.08,VWS V14.00,2013-01-13 04:50:00,
2013-01-12 23:55:00,38.7,38.2,30.09,East,90,0.0,0.0,98,0.00,,---,0.08,VWS V14.00,2013-01-13 04:55:00,